createdAt,value
2016-05-16T00:00:56.834Z,32.47
2016-05-16T00:01:56.868Z,32.47
2016-05-16T00:02:56.934Z,32.47
2016-05-16T00:03:56.983Z,32.57
2016-05-16T00:04:56.986Z,32.38
2016-05-16T00:05:57.081Z,32.57
2016-05-16T00:06:57.117Z,32.38
2016-05-16T00:07:57.165Z,32.28
2016-05-16T00:08:57.215Z,32.18
2016-05-16T00:09:57.280Z,32.28
2016-05-16T00:10:57.330Z,32.38
2016-05-16T00:11:57.238Z,31.99
2016-05-16T00:12:57.428Z,32.38
2016-05-16T00:13:57.479Z,32.57
2016-05-16T00:14:57.528Z,32.57
2016-05-16T00:15:57.578Z,32.28
2016-05-16T00:16:57.471Z,32.38
2016-05-16T00:17:57.661Z,32.38
2016-05-16T00:18:57.726Z,32.18
2016-05-16T00:19:57.619Z,32.38
2016-05-16T00:20:57.810Z,32.28
2016-05-16T00:21:57.860Z,32.38
2016-05-16T00:22:57.924Z,32.28
2016-05-16T00:23:57.974Z,32.09
2016-05-16T00:24:57.868Z,32.47
2016-05-16T00:25:57.918Z,32.47
2016-05-16T00:26:57.982Z,32.18
2016-05-16T00:27:58.173Z,31.99
2016-05-16T00:28:58.207Z,32.09
2016-05-16T00:29:58.271Z,32.47
2016-05-16T00:30:58.321Z,32.47
2016-05-16T00:31:58.198Z,32.09
2016-05-16T00:32:58.421Z,32.57
2016-05-16T00:33:58.470Z,32.38
2016-05-16T00:34:58.535Z,32.67
2016-05-16T00:35:58.569Z,32.28
2016-05-16T00:36:58.634Z,32.38
2016-05-16T00:37:58.668Z,32.28
2016-05-16T00:38:58.733Z,32.76
2016-05-16T00:39:58.783Z,32.67
2016-05-16T00:40:58.833Z,32.28
2016-05-16T00:41:58.867Z,32.57
2016-05-16T00:42:58.931Z,32.28
2016-05-16T00:43:58.966Z,32.28
2016-05-16T00:44:59.014Z,32.47
2016-05-16T00:45:58.924Z,32.09
2016-05-16T00:46:59.114Z,32.47
2016-05-16T00:47:59.164Z,32.67
2016-05-16T00:48:59.213Z,32.67
2016-05-16T00:49:59.763Z,32.57
2016-05-16T00:50:59.328Z,32.86
2016-05-16T00:51:59.362Z,33.04
2016-05-16T00:52:59.411Z,33.33
2016-05-16T00:53:59.477Z,32.95
2016-05-16T00:54:59.527Z,32.95
2016-05-16T00:55:59.576Z,32.76
2016-05-16T00:56:59.626Z,32.67
2016-05-16T00:57:59.675Z,32.57
2016-05-16T00:58:59.725Z,32.28
2016-05-16T00:59:59.758Z,32.67
2016-05-16T01:00:59.823Z,32.76
2016-05-16T01:01:59.873Z,32.95
2016-05-16T01:02:59.923Z,32.76
2016-05-16T01:03:59.973Z,32.28
2016-05-16T01:05:00.022Z,32.76
2016-05-16T01:06:00.071Z,33.04
2016-05-16T01:07:00.136Z,32.95
2016-05-16T01:08:00.171Z,32.86
2016-05-16T01:09:00.064Z,32.38
2016-05-16T01:10:00.270Z,32.47
2016-05-16T01:11:00.304Z,32.67
2016-05-16T01:12:00.353Z,32.67
2016-05-16T01:13:00.419Z,32.47
2016-05-16T01:14:00.468Z,32.47
2016-05-16T01:15:00.503Z,32.67
2016-05-16T01:16:00.567Z,32.57
2016-05-16T01:17:00.632Z,32.57
2016-05-16T01:18:00.666Z,32.47
2016-05-16T01:19:00.716Z,32.38
2016-05-16T01:20:01.078Z,32.47
2016-05-16T01:21:00.816Z,32.67
2016-05-16T01:22:00.864Z,32.57
2016-05-16T01:23:00.913Z,32.57
2016-05-16T01:24:00.964Z,32.28
2016-05-16T01:25:01.014Z,32.18
2016-05-16T01:26:01.063Z,32.76
2016-05-16T01:27:01.127Z,33.24
2016-05-16T01:28:01.178Z,32.86
2016-05-16T01:29:01.070Z,32.67
2016-05-16T01:30:01.261Z,33.04
2016-05-16T01:31:01.326Z,32.67
2016-05-16T01:32:01.360Z,32.76
2016-05-16T01:33:01.410Z,32.18
2016-05-16T01:34:01.460Z,32.38
2016-05-16T01:35:02.024Z,32.67
2016-05-16T01:36:01.558Z,32.76
2016-05-16T01:37:01.608Z,32.76
2016-05-16T01:38:01.674Z,32.86
2016-05-16T01:39:01.707Z,32.76
2016-05-16T01:40:01.756Z,32.67
2016-05-16T01:41:01.823Z,32.67
2016-05-16T01:42:01.856Z,33.14
2016-05-16T01:43:01.764Z,32.95
2016-05-16T01:44:01.971Z,32.95
2016-05-16T01:45:02.020Z,32.76
2016-05-16T01:46:02.069Z,33.04
2016-05-16T01:47:02.120Z,32.86
2016-05-16T01:48:02.153Z,32.76
2016-05-16T01:49:02.202Z,32.67
2016-05-16T01:50:02.597Z,32.86
2016-05-16T01:51:02.146Z,32.86
2016-05-16T01:52:02.382Z,32.76
2016-05-16T01:53:02.488Z,33.14
2016-05-16T01:54:02.578Z,33.04
2016-05-16T01:55:02.667Z,32.95
2016-05-16T01:56:02.758Z,32.57
2016-05-16T01:57:02.671Z,32.76
2016-05-16T01:58:02.892Z,32.67
2016-05-16T01:59:02.956Z,32.67
2016-05-16T02:00:03.036Z,32.95
2016-05-16T02:01:03.100Z,32.95
2016-05-16T02:02:03.141Z,32.76
2016-05-16T02:03:03.197Z,32.28
2016-05-16T02:04:03.252Z,33.04
2016-05-16T02:05:03.354Z,32.76
2016-05-16T02:06:03.362Z,32.67
2016-05-16T02:07:03.413Z,32.95
2016-05-16T02:08:03.465Z,33.03
2016-05-16T02:09:03.516Z,33.04
2016-05-16T02:10:03.568Z,33.04
2016-05-16T02:11:03.620Z,32.76
2016-05-16T02:12:03.671Z,32.67
2016-05-16T02:13:03.721Z,32.95
2016-05-16T02:14:03.771Z,32.18
2016-05-16T02:15:03.837Z,32.76
2016-05-16T02:16:03.871Z,32.86
2016-05-16T02:17:03.921Z,32.86
2016-05-16T02:18:03.814Z,33.03
2016-05-16T02:19:04.021Z,32.18
2016-05-16T02:20:03.945Z,32.86
2016-05-16T02:21:04.119Z,32.86
2016-05-16T02:22:04.170Z,33.04
2016-05-16T02:23:04.218Z,32.76
2016-05-16T02:24:04.267Z,33.03
2016-05-16T02:25:04.318Z,33.7
2016-05-16T02:26:04.367Z,32.95
2016-05-16T02:27:04.433Z,32.86
2016-05-16T02:28:04.466Z,33.14
2016-05-16T02:29:04.531Z,32.76
2016-05-16T02:30:04.566Z,33.43
2016-05-16T02:31:04.615Z,33.04
2016-05-16T02:32:04.696Z,33.43
2016-05-16T02:33:04.730Z,33.04
2016-05-16T02:34:04.779Z,33.04
2016-05-16T02:35:05.361Z,33.14
2016-05-16T02:36:04.878Z,33.04
2016-05-16T02:37:04.944Z,32.76
2016-05-16T02:38:04.993Z,33.04
2016-05-16T02:39:05.027Z,33.04
2016-05-16T02:40:05.093Z,33.03
2016-05-16T02:41:05.158Z,33.14
2016-05-16T02:42:05.035Z,32.38
2016-05-16T02:43:05.240Z,32.95
2016-05-16T02:44:05.290Z,32.67
2016-05-16T02:45:05.324Z,32.76
2016-05-16T02:46:05.390Z,32.47
2016-05-16T02:47:05.423Z,33.04
2016-05-16T02:48:05.474Z,32.86
2016-05-16T02:49:05.523Z,32.65
2016-05-16T02:50:05.604Z,33.12
2016-05-16T02:51:05.637Z,33.03
2016-05-16T02:52:05.687Z,33.03
2016-05-16T02:53:05.736Z,33.22
2016-05-16T02:54:05.787Z,33.32
2016-05-16T02:55:05.851Z,33.41
2016-05-16T02:56:05.886Z,33.51
2016-05-16T02:57:05.934Z,33.51
2016-05-16T02:58:05.984Z,33.32
2016-05-16T02:59:06.034Z,33.8
2016-05-16T03:00:06.084Z,33.61
2016-05-16T03:01:06.133Z,33.7
2016-05-16T03:02:06.183Z,32.95
2016-05-16T03:03:06.248Z,33.72
2016-05-16T03:04:06.282Z,33.91
2016-05-16T03:05:06.519Z,33.62
2016-05-16T03:06:06.224Z,33.72
2016-05-16T03:07:06.446Z,33.51
2016-05-16T03:08:06.480Z,33.43
2016-05-16T03:09:06.530Z,33.24
2016-05-16T03:10:06.579Z,33.53
2016-05-16T03:11:06.629Z,33.8
2016-05-16T03:12:06.679Z,32.84
2016-05-16T03:13:06.713Z,33.33
2016-05-16T03:14:06.793Z,33.8
2016-05-16T03:15:06.827Z,33.81
2016-05-16T03:16:06.876Z,33.62
2016-05-16T03:17:06.926Z,33.22
2016-05-16T03:18:06.820Z,33.53
2016-05-16T03:19:07.041Z,33.81
2016-05-16T03:20:07.075Z,33.51
2016-05-16T03:21:07.140Z,33.53
2016-05-16T03:22:07.159Z,33.14
2016-05-16T03:23:07.223Z,33.8
2016-05-16T03:24:07.273Z,33.8
2016-05-16T03:25:07.339Z,33.7
2016-05-16T03:26:07.373Z,33.41
2016-05-16T03:27:07.437Z,33.7
2016-05-16T03:28:07.472Z,33.99
2016-05-16T03:29:07.520Z,33.61
2016-05-16T03:30:07.570Z,33.7
2016-05-16T03:31:07.636Z,33.32
2016-05-16T03:32:07.670Z,33.61
2016-05-16T03:33:07.719Z,33.8
2016-05-16T03:34:07.784Z,33.8
2016-05-16T03:35:07.819Z,33.7
2016-05-16T03:36:07.868Z,33.61
2016-05-16T03:37:07.746Z,33.61
2016-05-16T03:38:07.967Z,33.51
2016-05-16T03:39:08.016Z,33.61
2016-05-16T03:40:08.066Z,33.32
2016-05-16T03:41:08.132Z,33.32
2016-05-16T03:42:08.180Z,33.8
2016-05-16T03:43:08.215Z,33.32
2016-05-16T03:44:08.265Z,33.8
2016-05-16T03:45:08.330Z,33.61
2016-05-16T03:46:08.363Z,33.89
2016-05-16T03:47:08.257Z,33.7
2016-05-16T03:48:08.479Z,33.61
2016-05-16T03:49:08.528Z,33.41
2016-05-16T03:50:08.640Z,33.61
2016-05-16T03:51:08.612Z,33.61
2016-05-16T03:52:08.504Z,34.08
2016-05-16T03:53:08.726Z,33.61
2016-05-16T03:54:08.760Z,33.8
2016-05-16T03:55:08.825Z,33.7
2016-05-16T03:56:08.859Z,33.7
2016-05-16T03:57:08.753Z,33.51
2016-05-16T03:58:08.959Z,33.51
2016-05-16T03:59:08.851Z,33.51
2016-05-16T04:00:09.058Z,34.28
2016-05-16T04:01:09.106Z,34.37
2016-05-16T04:02:09.156Z,33.51
2016-05-16T04:03:09.222Z,33.51
2016-05-16T04:04:09.272Z,33.41
2016-05-16T04:05:09.305Z,33.99
2016-05-16T04:06:09.199Z,33.41
2016-05-16T04:07:09.420Z,34.18
2016-05-16T04:08:09.470Z,34.18
2016-05-16T04:09:09.519Z,34.47
2016-05-16T04:10:09.569Z,33.61
2016-05-16T04:11:09.618Z,34.08
2016-05-16T04:12:09.652Z,34.47
2016-05-16T04:13:09.702Z,34.08
2016-05-16T04:14:09.766Z,33.41
2016-05-16T04:15:09.801Z,34.18
2016-05-16T04:16:09.866Z,34.28
2016-05-16T04:17:09.916Z,34.18
2016-05-16T04:18:09.949Z,33.8
2016-05-16T04:19:09.859Z,33.51
2016-05-16T04:20:10.111Z,33.41
2016-05-16T04:21:10.098Z,33.89
2016-05-16T04:22:10.163Z,33.99
2016-05-16T04:23:10.198Z,34.37
2016-05-16T04:24:10.247Z,34.08
2016-05-16T04:25:10.296Z,33.51
2016-05-16T04:26:10.346Z,33.99
2016-05-16T04:27:10.395Z,33.99
2016-05-16T04:28:10.445Z,33.99
2016-05-16T04:29:10.511Z,33.99
2016-05-16T04:30:10.545Z,33.8
2016-05-16T04:31:10.609Z,33.99
2016-05-16T04:32:10.503Z,33.41
2016-05-16T04:33:10.708Z,33.41
2016-05-16T04:34:10.758Z,34.08
2016-05-16T04:35:10.777Z,34.08
2016-05-16T04:36:10.842Z,34.28
2016-05-16T04:37:10.894Z,34.18
2016-05-16T04:38:10.959Z,34.08
2016-05-16T04:39:10.994Z,34.37
2016-05-16T04:40:11.043Z,34.28
2016-05-16T04:41:11.155Z,34.18
2016-05-16T04:42:11.158Z,34.37
2016-05-16T04:43:11.051Z,34.47
2016-05-16T04:44:11.241Z,34.28
2016-05-16T04:45:11.290Z,34.18
2016-05-16T04:46:11.355Z,34.18
2016-05-16T04:47:11.390Z,34.28
2016-05-16T04:48:11.440Z,34.18
2016-05-16T04:49:11.488Z,34.08
2016-05-16T04:50:11.804Z,34.56
2016-05-16T04:51:11.587Z,34.47
2016-05-16T04:52:11.654Z,34.28
2016-05-16T04:53:11.703Z,33.99
2016-05-16T04:54:11.752Z,34.37
2016-05-16T04:55:11.801Z,34.56
2016-05-16T04:56:11.851Z,33.8
2016-05-16T04:57:11.901Z,34.47
2016-05-16T04:58:11.934Z,34.47
2016-05-16T04:59:12.000Z,34.47
2016-05-16T05:00:12.050Z,34.18
2016-05-16T05:01:12.084Z,34.37
2016-05-16T05:02:12.133Z,34.66
2016-05-16T05:03:12.183Z,34.18
2016-05-16T05:04:12.232Z,34.18
2016-05-16T05:05:12.125Z,34.18
2016-05-16T05:06:12.347Z,34.18
2016-05-16T05:07:12.225Z,34.18
2016-05-16T05:08:12.446Z,34.47
2016-05-16T05:09:12.480Z,34.56
2016-05-16T05:10:12.530Z,34.28
2016-05-16T05:11:12.594Z,34.56
2016-05-16T05:12:12.644Z,34.66
2016-05-16T05:13:12.538Z,34.47
2016-05-16T05:14:12.744Z,34.66
2016-05-16T05:15:12.794Z,34.66
2016-05-16T05:16:12.843Z,34.47
2016-05-16T05:17:12.892Z,34.47
2016-05-16T05:18:12.941Z,34.37
2016-05-16T05:19:12.976Z,34.66
2016-05-16T05:20:13.307Z,34.37
2016-05-16T05:21:13.074Z,34.75
2016-05-16T05:22:12.984Z,34.56
2016-05-16T05:23:13.173Z,34.66
2016-05-16T05:24:13.255Z,34.75
2016-05-16T05:25:13.289Z,34.47
2016-05-16T05:26:13.182Z,34.47
2016-05-16T05:27:13.231Z,34.66
2016-05-16T05:28:13.437Z,34.47
2016-05-16T05:29:13.487Z,34.56
2016-05-16T05:30:13.520Z,34.37
2016-05-16T05:31:13.586Z,34.47
2016-05-16T05:32:13.620Z,34.56
2016-05-16T05:33:13.717Z,34.66
2016-05-16T05:34:13.735Z,34.66
2016-05-16T05:35:14.019Z,34.47
2016-05-16T05:36:13.833Z,34.37
2016-05-16T05:37:13.884Z,34.28
2016-05-16T05:38:13.933Z,34.37
2016-05-16T05:39:13.827Z,34.56
2016-05-16T05:40:14.032Z,34.47
2016-05-16T05:41:14.066Z,34.47
2016-05-16T05:42:14.115Z,34.37
2016-05-16T05:43:14.166Z,34.37
2016-05-16T05:44:14.199Z,34.18
2016-05-16T05:45:14.264Z,34.47
2016-05-16T05:46:14.313Z,34.56
2016-05-16T05:47:14.349Z,34.47
2016-05-16T05:48:14.412Z,34.56
2016-05-16T05:49:14.479Z,34.75
2016-05-16T05:50:14.356Z,34.47
2016-05-16T05:51:14.421Z,34.47
2016-05-16T05:52:14.626Z,34.66
2016-05-16T05:53:14.661Z,34.37
2016-05-16T05:54:14.710Z,34.56
2016-05-16T05:55:14.760Z,34.56
2016-05-16T05:56:14.810Z,34.75
2016-05-16T05:57:14.859Z,34.66
2016-05-16T05:58:14.924Z,34.85
2016-05-16T05:59:14.801Z,34.66
2016-05-16T06:00:15.008Z,34.75
2016-05-16T06:01:15.073Z,34.75
2016-05-16T06:02:14.951Z,34.28
2016-05-16T06:03:15.156Z,34.75
2016-05-16T06:04:15.206Z,34.37
2016-05-16T06:05:15.256Z,34.37
2016-05-16T06:06:15.149Z,34.47
2016-05-16T06:07:15.355Z,34.66
2016-05-16T06:08:15.405Z,34.37
2016-05-16T06:09:15.453Z,34.56
2016-05-16T06:10:15.347Z,34.75
2016-05-16T06:11:15.552Z,34.56
2016-05-16T06:12:15.603Z,34.75
2016-05-16T06:13:15.652Z,34.56
2016-05-16T06:14:15.717Z,34.28
2016-05-16T06:15:15.751Z,34.75
2016-05-16T06:16:15.816Z,34.28
2016-05-16T06:17:15.849Z,34.47
2016-05-16T06:18:15.759Z,34.66
2016-05-16T06:19:15.966Z,34.75
2016-05-16T06:20:16.046Z,34.75
2016-05-16T06:21:16.049Z,34.28
2016-05-16T06:22:15.942Z,34.66
2016-05-16T06:23:16.148Z,34.56
2016-05-16T06:24:16.213Z,34.56
2016-05-16T06:25:16.262Z,34.66
2016-05-16T06:26:16.312Z,34.66
2016-05-16T06:27:16.362Z,34.75
2016-05-16T06:28:16.395Z,34.47
2016-05-16T06:29:16.461Z,34.66
2016-05-16T06:30:16.510Z,34.66
2016-05-16T06:31:16.544Z,34.66
2016-05-16T06:32:16.595Z,34.94
2016-05-16T06:33:16.658Z,34.93
2016-05-16T06:34:16.693Z,34.75
2016-05-16T06:35:16.743Z,34.55
2016-05-16T06:36:16.792Z,34.66
2016-05-16T06:37:16.858Z,34.37
2016-05-16T06:38:16.891Z,34.37
2016-05-16T06:39:16.941Z,34.75
2016-05-16T06:40:16.991Z,34.75
2016-05-16T06:41:17.040Z,34.66
2016-05-16T06:42:16.933Z,35.04
2016-05-16T06:43:17.139Z,34.56
2016-05-16T06:44:17.204Z,35.04
2016-05-16T06:45:17.222Z,34.47
2016-05-16T06:46:17.272Z,34.85
2016-05-16T06:47:17.338Z,34.47
2016-05-16T06:48:17.388Z,34.56
2016-05-16T06:49:17.452Z,34.66
2016-05-16T06:50:17.518Z,34.45
2016-05-16T06:51:17.536Z,34.47
2016-05-16T06:52:17.585Z,34.28
2016-05-16T06:53:17.635Z,34.47
2016-05-16T06:54:17.684Z,34.47
2016-05-16T06:55:17.734Z,34.45
2016-05-16T06:56:17.784Z,34.56
2016-05-16T06:57:17.833Z,34.66
2016-05-16T06:58:17.882Z,34.55
2016-05-16T06:59:18.088Z,34.47
2016-05-16T07:00:17.981Z,34.64
2016-05-16T07:01:17.906Z,34.74
2016-05-16T07:02:18.143Z,34.45
2016-05-16T07:03:18.145Z,34.45
2016-05-16T07:04:18.212Z,34.64
2016-05-16T07:05:18.401Z,34.45
2016-05-16T07:06:18.122Z,34.45
2016-05-16T07:07:18.345Z,34.45
2016-05-16T07:08:18.378Z,34.45
2016-05-16T07:09:18.428Z,34.45
2016-05-16T07:10:18.492Z,34.36
2016-05-16T07:11:18.527Z,34.55
2016-05-16T07:12:18.577Z,34.45
2016-05-16T07:13:18.626Z,34.45
2016-05-16T07:14:18.675Z,34.64
2016-05-16T07:15:18.741Z,34.55
2016-05-16T07:16:18.759Z,34.55
2016-05-16T07:17:18.840Z,34.06
2016-05-16T07:18:18.889Z,34.64
2016-05-16T07:19:18.923Z,34.55
2016-05-16T07:20:19.316Z,34.55
2016-05-16T07:21:19.022Z,34.36
2016-05-16T07:22:19.072Z,34.36
2016-05-16T07:23:19.107Z,34.45
2016-05-16T07:24:19.187Z,34.55
2016-05-16T07:25:19.237Z,34.64
2016-05-16T07:26:19.270Z,34.36
2016-05-16T07:27:19.320Z,34.74
2016-05-16T07:28:19.385Z,34.45
2016-05-16T07:29:19.434Z,34.36
2016-05-16T07:30:19.469Z,34.55
2016-05-16T07:31:19.534Z,34.45
2016-05-16T07:32:19.583Z,34.85
2016-05-16T07:33:19.601Z,34.55
2016-05-16T07:34:19.667Z,34.18
2016-05-16T07:35:19.717Z,34.66
2016-05-16T07:36:19.766Z,34.45
2016-05-16T07:37:19.800Z,34.45
2016-05-16T07:38:19.865Z,34.45
2016-05-16T07:39:19.915Z,34.26
2016-05-16T07:40:19.981Z,34.45
2016-05-16T07:41:20.029Z,34.36
2016-05-16T07:42:20.079Z,34.36
2016-05-16T07:43:20.097Z,34.45
2016-05-16T07:44:19.991Z,34.36
2016-05-16T07:45:20.211Z,34.45
2016-05-16T07:46:20.261Z,34.64
2016-05-16T07:47:20.310Z,34.45
2016-05-16T07:48:20.204Z,34.26
2016-05-16T07:49:20.411Z,34.36
2016-05-16T07:50:20.835Z,34.55
2016-05-16T07:51:20.510Z,34.74
2016-05-16T07:52:20.574Z,34.36
2016-05-16T07:53:20.624Z,34.83
2016-05-16T07:54:20.643Z,34.36
2016-05-16T07:55:20.723Z,34.83
2016-05-16T07:56:20.773Z,34.26
2016-05-16T07:57:20.790Z,34.36
2016-05-16T07:58:20.872Z,34.16
2016-05-16T07:59:20.907Z,34.83
2016-05-16T08:00:20.956Z,34.45
2016-05-16T08:01:20.849Z,34.45
2016-05-16T08:02:20.914Z,34.26
2016-05-16T08:03:21.104Z,34.47
2016-05-16T08:04:21.153Z,34.83
2016-05-16T08:05:21.219Z,34.83
2016-05-16T08:06:21.268Z,34.36
2016-05-16T08:07:21.303Z,34.66
2016-05-16T08:08:21.352Z,34.56
2016-05-16T08:09:21.401Z,34.47
2016-05-16T08:10:21.451Z,34.47
2016-05-16T08:11:21.485Z,34.75
2016-05-16T08:12:21.534Z,34.55
2016-05-16T08:13:21.615Z,34.47
2016-05-16T08:14:21.650Z,34.56
2016-05-16T08:15:21.700Z,34.83
2016-05-16T08:16:21.749Z,34.36
2016-05-16T08:17:21.798Z,34.83
2016-05-16T08:18:21.675Z,34.66
2016-05-16T08:19:32.991Z,34.47
2016-05-16T08:20:22.369Z,34.75
2016-05-16T08:21:22.074Z,34.47
2016-05-16T08:22:22.046Z,34.18
2016-05-16T08:23:22.080Z,34.36
2016-05-16T08:24:22.146Z,34.36
2016-05-16T08:25:22.194Z,34.37
2016-05-16T08:26:22.229Z,34.18
2016-05-16T08:27:22.293Z,33.97
2016-05-16T08:28:22.359Z,33.49
2016-05-16T08:29:22.376Z,33.87
2016-05-16T08:30:22.442Z,33.49
2016-05-16T08:31:22.508Z,33.59
2016-05-16T08:32:22.542Z,33.69
2016-05-16T08:33:22.451Z,33.69
2016-05-16T08:34:22.468Z,33.59
2016-05-16T08:35:22.846Z,33.59
2016-05-16T08:36:22.740Z,33.4
2016-05-16T08:37:22.789Z,33.59
2016-05-16T08:38:22.714Z,33.69
2016-05-16T08:39:22.889Z,33.49
2016-05-16T08:40:22.938Z,34.16
2016-05-16T08:41:22.972Z,33.49
2016-05-16T08:42:23.037Z,33.87
2016-05-16T08:43:23.086Z,33.49
2016-05-16T08:44:23.137Z,33.49
2016-05-16T08:45:23.185Z,33.87
2016-05-16T08:46:23.235Z,33.78
2016-05-16T08:47:23.301Z,34.06
2016-05-16T08:48:23.335Z,33.87
2016-05-16T08:49:23.384Z,33.49
2016-05-16T08:50:23.433Z,33.78
2016-05-16T08:51:23.499Z,34.16
2016-05-16T08:52:23.377Z,34.06
2016-05-16T08:53:23.582Z,33.97
2016-05-16T08:54:23.647Z,33.41
2016-05-16T08:55:23.666Z,33.97
2016-05-16T08:56:23.716Z,33.97
2016-05-16T08:57:23.780Z,34.18
2016-05-16T08:58:23.846Z,33.41
2016-05-16T08:59:23.879Z,33.61
2016-05-16T09:00:23.757Z,33.51
2016-05-16T09:01:23.978Z,33.7
2016-05-16T09:02:24.028Z,33.61
2016-05-16T09:03:24.063Z,33.51
2016-05-16T09:04:24.112Z,33.7
2016-05-16T09:05:24.177Z,33.61
2016-05-16T09:06:24.211Z,33.7
2016-05-16T09:07:24.261Z,33.7
2016-05-16T09:08:24.342Z,33.8
2016-05-16T09:09:24.375Z,33.61
2016-05-16T09:10:24.425Z,33.8
2016-05-16T09:11:24.475Z,33.7
2016-05-16T09:12:24.368Z,33.61
2016-05-16T09:13:24.573Z,33.61
2016-05-16T09:14:24.608Z,33.61
2016-05-16T09:15:24.672Z,33.7
2016-05-16T09:16:24.738Z,33.7
2016-05-16T09:17:24.755Z,33.7
2016-05-16T09:18:24.821Z,33.41
2016-05-16T09:19:24.872Z,33.7
2016-05-16T09:20:25.436Z,33.8
2016-05-16T09:21:24.970Z,33.7
2016-05-16T09:22:25.035Z,33.7
2016-05-16T09:23:25.069Z,33.7
2016-05-16T09:24:25.103Z,33.8
2016-05-16T09:25:25.013Z,34.08
2016-05-16T09:26:25.218Z,33.61
2016-05-16T09:27:25.252Z,33.7
2016-05-16T09:28:25.318Z,33.61
2016-05-16T09:29:25.351Z,33.51
2016-05-16T09:30:25.432Z,33.32
2016-05-16T09:31:25.450Z,33.61
2016-05-16T09:32:25.531Z,33.7
2016-05-16T09:33:25.565Z,33.61
2016-05-16T09:34:25.630Z,33.51
2016-05-16T09:35:25.524Z,33.12
2016-05-16T09:36:25.729Z,33.51
2016-05-16T09:37:25.607Z,33.32
2016-05-16T09:38:25.812Z,33.22
2016-05-16T09:39:25.862Z,33.22
2016-05-16T09:40:25.912Z,33.51
2016-05-16T09:41:25.961Z,33.32
2016-05-16T09:42:25.855Z,33.22
2016-05-16T09:43:26.061Z,33.51
2016-05-16T09:44:25.939Z,33.22
2016-05-16T09:45:26.144Z,32.93
2016-05-16T09:46:26.225Z,33.03
2016-05-16T09:47:26.243Z,33.12
2016-05-16T09:48:26.152Z,33.03
2016-05-16T09:49:26.358Z,33.03
2016-05-16T09:50:26.813Z,32.93
2016-05-16T09:51:26.286Z,33.03
2016-05-16T09:52:26.522Z,32.93
2016-05-16T09:53:26.541Z,32.93
2016-05-16T09:54:26.605Z,32.65
2016-05-16T09:55:26.702Z,32.75
2016-05-16T09:56:26.705Z,33.03
2016-05-16T09:57:26.599Z,33.12
2016-05-16T09:58:26.820Z,33.12
2016-05-16T09:59:26.854Z,33.03
2016-05-16T10:00:26.919Z,33.03
2016-05-16T10:01:26.952Z,33.03
2016-05-16T10:02:27.002Z,33.03
2016-05-16T10:03:27.067Z,33.12
2016-05-16T10:04:27.101Z,32.75
2016-05-16T10:05:27.307Z,32.93
2016-05-16T10:06:27.201Z,32.26
2016-05-16T10:07:27.251Z,31.98
2016-05-16T10:08:27.300Z,33.12
2016-05-16T10:09:27.349Z,33.03
2016-05-16T10:10:27.398Z,33.03
2016-05-16T10:11:27.448Z,33.12
2016-05-16T10:12:27.514Z,32.65
2016-05-16T10:13:27.892Z,32.65
2016-05-16T10:14:27.598Z,32.65
2016-05-16T10:15:27.647Z,32.65
2016-05-16T10:16:27.697Z,33.03
2016-05-16T10:17:27.745Z,32.36
2016-05-16T10:18:27.795Z,32.93
2016-05-16T10:19:27.829Z,32.36
2016-05-16T10:20:27.911Z,32.26
2016-05-16T10:21:27.944Z,32.93
2016-05-16T10:22:27.994Z,32.93
2016-05-16T10:23:28.044Z,33.22
2016-05-16T10:24:27.936Z,33.61
2016-05-16T10:25:28.142Z,33.7
2016-05-16T10:26:28.191Z,32.93
2016-05-16T10:27:28.241Z,32.65
2016-05-16T10:28:28.307Z,32.36
2016-05-16T10:29:28.325Z,32.75
2016-05-16T10:30:28.375Z,33.03
2016-05-16T10:31:28.455Z,33.03
2016-05-16T10:32:28.490Z,33.03
2016-05-16T10:33:28.523Z,32.55
2016-05-16T10:34:28.588Z,32.93
2016-05-16T10:35:29.012Z,32.65
2016-05-16T10:36:28.704Z,32.84
2016-05-16T10:37:28.753Z,32.84
2016-05-16T10:38:28.786Z,32.65
2016-05-16T10:39:28.852Z,32.55
2016-05-16T10:40:28.902Z,32.84
2016-05-16T10:41:28.935Z,32.55
2016-05-16T10:42:29.001Z,32.26
2016-05-16T10:43:29.050Z,32.07
2016-05-16T10:44:29.100Z,32.26
2016-05-16T10:45:29.149Z,32.07
2016-05-16T10:46:29.183Z,32.26
2016-05-16T10:47:29.248Z,31.98
2016-05-16T10:48:29.283Z,32.07
2016-05-16T10:49:29.363Z,32.36
2016-05-16T10:50:29.241Z,32.65
2016-05-16T10:51:29.430Z,32.07
2016-05-16T10:52:29.465Z,32.36
2016-05-16T10:53:29.530Z,32.26
2016-05-16T10:54:29.580Z,32.26
2016-05-16T10:55:29.458Z,32.26
2016-05-16T10:56:29.663Z,32.07
2016-05-16T10:57:29.784Z,31.98
2016-05-16T10:58:29.709Z,31.79
2016-05-16T10:59:29.946Z,32.07
2016-05-16T11:00:30.058Z,31.98
2016-05-16T11:01:30.154Z,31.98
2016-05-16T11:02:30.225Z,31.79
2016-05-16T11:03:30.292Z,32.07
2016-05-16T11:04:30.373Z,31.98
2016-05-16T11:05:30.268Z,31.79
2016-05-16T11:06:32.038Z,31.79
2016-05-16T11:07:30.375Z,31.69
2016-05-16T11:08:30.619Z,31.98
2016-05-16T11:09:30.674Z,31.98
2016-05-16T11:10:30.714Z,32.17
2016-05-16T11:11:30.613Z,32.07
2016-05-16T11:12:30.822Z,32.36
2016-05-16T11:13:30.872Z,32.07
2016-05-16T11:14:30.925Z,31.98
2016-05-16T11:15:30.976Z,31.88
2016-05-16T11:16:31.029Z,31.98
2016-05-16T11:17:30.907Z,31.69
2016-05-16T11:18:31.129Z,31.88
2016-05-16T11:19:31.181Z,31.79
2016-05-16T11:20:31.245Z,31.98
2016-05-16T11:21:31.280Z,31.59
2016-05-16T11:22:31.331Z,31.79
2016-05-16T11:23:31.380Z,31.5
2016-05-16T11:24:31.650Z,32.17
2016-05-16T11:25:31.480Z,31.88
2016-05-16T11:26:31.545Z,31.79
2016-05-16T11:27:31.595Z,31.69
2016-05-16T11:28:31.489Z,31.3
2016-05-16T11:29:31.678Z,31.88
2016-05-16T11:30:31.745Z,31.4
2016-05-16T11:31:31.778Z,31.69
2016-05-16T11:32:31.844Z,31.79
2016-05-16T11:33:31.894Z,31.88
2016-05-16T11:34:31.942Z,31.59
2016-05-16T11:35:31.836Z,31.21
2016-05-16T11:36:32.026Z,31.98
2016-05-16T11:37:32.075Z,31.69
2016-05-16T11:38:31.985Z,31.79
2016-05-16T11:39:32.191Z,31.79
2016-05-16T11:40:32.208Z,31.5
2016-05-16T11:41:32.274Z,31.79
2016-05-16T11:42:32.338Z,31.88
2016-05-16T11:43:32.357Z,31.79
2016-05-16T11:44:32.407Z,31.69
2016-05-16T11:45:32.471Z,31.69
2016-05-16T11:46:32.522Z,31.3
2016-05-16T11:47:32.571Z,31.21
2016-05-16T11:48:32.621Z,31.12
2016-05-16T11:49:32.687Z,31.5
2016-05-16T11:50:32.579Z,31.21
2016-05-16T11:51:32.973Z,31.4
2016-05-16T11:52:32.834Z,31.4
2016-05-16T11:53:32.884Z,31.21
2016-05-16T11:54:32.918Z,31.02
2016-05-16T11:55:32.968Z,31.3
2016-05-16T11:56:32.861Z,31.59
2016-05-16T11:57:33.067Z,31.98
2016-05-16T11:58:33.116Z,31.21
2016-05-16T11:59:33.151Z,31.4
2016-05-16T12:00:33.200Z,31.5
2016-05-16T12:01:33.109Z,31.4
2016-05-16T12:02:33.315Z,31.21
2016-05-16T12:03:33.192Z,31.21
2016-05-16T12:04:33.430Z,31.21
2016-05-16T12:05:33.666Z,31.21
2016-05-16T12:06:33.513Z,32.07
2016-05-16T12:07:33.563Z,31.98
2016-05-16T12:08:33.613Z,32.07
2016-05-16T12:09:33.677Z,31.3
2016-05-16T12:10:33.711Z,31.3
2016-05-16T12:11:33.777Z,30.93
2016-05-16T12:12:33.826Z,31.21
2016-05-16T12:13:33.860Z,31.3
2016-05-16T12:14:33.754Z,31.21
2016-05-16T12:15:33.803Z,31.5
2016-05-16T12:16:33.868Z,31.21
2016-05-16T12:17:34.058Z,30.93
2016-05-16T12:18:34.123Z,30.93
2016-05-16T12:19:34.142Z,31.12
2016-05-16T12:20:34.409Z,31.3
2016-05-16T12:21:34.272Z,31.12
2016-05-16T12:22:34.307Z,31.4
2016-05-16T12:23:34.371Z,31.69
2016-05-16T12:24:34.406Z,31.5
2016-05-16T12:25:34.470Z,31.4
2016-05-16T12:26:34.520Z,30.93
2016-05-16T12:27:34.554Z,30.93
2016-05-16T12:28:34.603Z,31.02
2016-05-16T12:29:34.669Z,31.3
2016-05-16T12:30:34.547Z,31.02
2016-05-16T12:31:34.768Z,31.3
2016-05-16T12:32:34.817Z,31.4
2016-05-16T12:33:34.711Z,31.12
2016-05-16T12:34:34.900Z,31.4
2016-05-16T12:35:35.216Z,31.98
2016-05-16T12:36:34.999Z,31.79
2016-05-16T12:37:35.050Z,31.59
2016-05-16T12:38:35.100Z,31.5
2016-05-16T12:39:35.149Z,31.3
2016-05-16T12:40:35.199Z,31.21
2016-05-16T12:41:35.263Z,31.12
2016-05-16T12:42:35.297Z,31.88
2016-05-16T12:43:35.346Z,31.4
2016-05-16T12:44:35.255Z,31.21
2016-05-16T12:45:35.462Z,31.4
2016-05-16T12:46:35.496Z,31.12
2016-05-16T12:47:35.560Z,31.21
2016-05-16T12:48:35.595Z,31.21
2016-05-16T12:49:35.644Z,31.4
2016-05-16T12:50:35.537Z,31.21
2016-05-16T12:51:35.744Z,31.02
2016-05-16T12:52:35.792Z,31.21
2016-05-16T12:53:35.859Z,31.3
2016-05-16T12:54:35.908Z,31.12
2016-05-16T12:55:35.942Z,31.12
2016-05-16T12:56:35.991Z,30.93